createdAt,value
2023-03-28T00:01:49.497Z,1.00
2023-03-28T00:04:37.295Z,1.00
2023-03-28T00:07:24.234Z,1.30
2023-03-28T00:10:11.272Z,1.10
2023-03-28T00:12:58.201Z,1.40
2023-03-28T00:15:45.331Z,1.57
2023-03-28T00:18:37.452Z,1.10
2023-03-28T00:21:32.826Z,1.23
2023-03-28T00:24:21.552Z,1.27
2023-03-28T00:27:08.628Z,1.60
2023-03-28T00:29:55.651Z,1.33
2023-03-28T00:32:42.773Z,1.50
2023-03-28T00:35:29.936Z,1.80
2023-03-28T00:38:16.946Z,2.00
2023-03-28T00:41:05.850Z,1.77
2023-03-28T00:43:54.854Z,1.90
2023-03-28T00:46:42.540Z,2.00
2023-03-28T00:49:30.078Z,1.80
2023-03-28T00:52:18.066Z,2.30
2023-03-28T00:55:07.866Z,2.50
2023-03-28T00:57:55.704Z,2.30
2023-03-28T01:00:46.642Z,2.17
2023-03-28T01:03:35.841Z,2.30
2023-03-28T01:06:26.063Z,3.43
2023-03-28T01:09:16.556Z,2.03
2023-03-28T01:12:10.330Z,1.70
2023-03-28T01:14:57.568Z,2.13
2023-03-28T01:17:46.483Z,2.27
2023-03-28T01:20:46.684Z,2.00
2023-03-28T01:24:11.867Z,2.07
2023-03-28T01:27:10.609Z,1.97
2023-03-28T01:30:07.492Z,1.53
2023-03-28T01:33:37.435Z,1.73
2023-03-28T01:36:35.485Z,2.13
2023-03-28T01:39:44.752Z,1.87
2023-03-28T01:43:13.128Z,4.40
2023-03-28T01:46:22.429Z,2.03
2023-03-28T01:49:19.771Z,1.90
2023-03-28T01:52:34.728Z,1.73
2023-03-28T01:55:30.186Z,1.90
2023-03-28T01:58:23.436Z,2.60
2023-03-28T02:01:36.819Z,1.60
2023-03-28T02:04:29.111Z,2.93
2023-03-28T02:07:21.806Z,2.20
2023-03-28T02:10:32.466Z,2.23
2023-03-28T02:13:30.118Z,2.87
2023-03-28T02:16:44.695Z,1.93
2023-03-28T02:19:52.491Z,1.97
2023-03-28T02:23:02.842Z,2.20
2023-03-28T02:26:07.448Z,2.60
2023-03-28T02:29:17.398Z,2.50
2023-03-28T02:32:17.772Z,2.53
2023-03-28T02:35:07.116Z,2.47
2023-03-28T02:38:14.893Z,2.80
2023-03-28T02:41:19.177Z,2.90
2023-03-28T02:44:30.921Z,2.23
2023-03-28T02:47:36.511Z,2.57
2023-03-28T02:50:43.345Z,2.83
2023-03-28T02:53:55.675Z,2.53
2023-03-28T02:56:52.857Z,2.83
2023-03-28T03:00:12.210Z,2.37
2023-03-28T03:02:59.492Z,2.93
2023-03-28T03:05:46.806Z,2.80
2023-03-28T03:08:34.040Z,2.83
2023-03-28T03:11:21.421Z,2.93
2023-03-28T03:14:08.384Z,2.40
2023-03-28T03:16:55.409Z,2.83
2023-03-28T03:19:43.473Z,3.40
2023-03-28T03:22:30.443Z,3.17
2023-03-28T03:25:17.521Z,2.57
2023-03-28T03:28:16.240Z,2.90
2023-03-28T03:31:03.403Z,2.57
2023-03-28T03:34:28.749Z,3.53
2023-03-28T03:37:18.697Z,3.30
2023-03-28T03:40:06.582Z,3.27
2023-03-28T03:42:56.000Z,3.80
2023-03-28T03:45:45.850Z,3.03
2023-03-28T03:48:32.913Z,3.03
2023-03-28T03:51:21.541Z,3.43
2023-03-28T03:54:12.060Z,3.77
2023-03-28T03:56:59.981Z,2.93
2023-03-28T03:59:47.414Z,3.60
2023-03-28T04:02:36.967Z,4.77
2023-03-28T04:05:26.904Z,4.17
2023-03-28T04:08:24.659Z,4.53
2023-03-28T04:11:11.653Z,4.03
2023-03-28T04:14:02.713Z,4.57
2023-03-28T04:16:50.715Z,4.47
2023-03-28T04:19:40.652Z,4.73
2023-03-28T04:22:31.020Z,4.17
2023-03-28T04:25:21.670Z,5.03
2023-03-28T04:28:09.662Z,4.70
2023-03-28T04:31:04.414Z,4.63
2023-03-28T04:34:30.276Z,5.00
2023-03-28T04:37:27.624Z,5.57
2023-03-28T04:40:17.703Z,5.27
2023-03-28T04:43:11.419Z,4.87
2023-03-28T04:46:06.161Z,4.77
2023-03-28T04:48:56.238Z,5.07
2023-03-28T04:51:47.516Z,5.37
2023-03-28T04:54:34.477Z,5.47
2023-03-28T04:57:26.599Z,5.50
2023-03-28T05:00:19.625Z,5.33
2023-03-28T05:03:29.689Z,4.90
2023-03-28T05:06:21.780Z,6.20
2023-03-28T05:09:10.998Z,4.93
2023-03-28T05:11:57.921Z,5.60
2023-03-28T05:14:44.905Z,5.60
2023-03-28T05:17:35.606Z,5.87
2023-03-28T05:20:38.699Z,5.20
2023-03-28T05:23:25.947Z,5.50
2023-03-28T05:26:13.717Z,5.47
2023-03-28T05:29:01.346Z,5.93
2023-03-28T05:31:48.423Z,5.07
2023-03-28T05:34:41.762Z,4.97
2023-03-28T05:37:29.567Z,4.87
2023-03-28T05:40:18.782Z,5.03
2023-03-28T05:43:05.994Z,5.20
2023-03-28T05:45:54.321Z,5.40
2023-03-28T05:48:43.123Z,5.17
2023-03-28T05:51:37.646Z,5.00
2023-03-28T05:54:24.642Z,5.13
2023-03-28T05:57:12.895Z,5.63
2023-03-28T06:00:00.193Z,6.87
2023-03-28T06:02:47.323Z,5.00
2023-03-28T06:05:37.793Z,4.97
2023-03-28T06:08:31.981Z,5.47
2023-03-28T06:11:19.028Z,5.10
2023-03-28T06:14:16.454Z,5.13
2023-03-28T06:17:03.673Z,5.70
2023-03-28T06:19:57.419Z,5.70
2023-03-28T06:22:44.476Z,5.47
2023-03-28T06:25:31.589Z,7.63
2023-03-28T06:28:18.649Z,5.17
2023-03-28T06:31:33.992Z,5.67
2023-03-28T06:34:21.447Z,4.57
2023-03-28T06:37:16.323Z,4.63
2023-03-28T06:40:14.873Z,5.70
2023-03-28T06:43:01.860Z,5.43
2023-03-28T06:45:58.521Z,5.40
2023-03-28T06:48:45.629Z,6.77
2023-03-28T06:51:44.644Z,4.83
2023-03-28T06:54:31.690Z,5.13
2023-03-28T06:57:19.175Z,4.97
2023-03-28T07:00:08.796Z,4.53
2023-03-28T07:03:25.218Z,5.83
2023-03-28T07:06:12.574Z,7.00
2023-03-28T07:08:59.764Z,4.63
2023-03-28T07:11:56.951Z,4.30
2023-03-28T07:14:44.638Z,5.03
2023-03-28T07:17:31.655Z,4.57
2023-03-28T07:20:19.564Z,4.67
2023-03-28T07:23:07.032Z,6.13
2023-03-28T07:25:53.976Z,5.70
2023-03-28T07:28:41.639Z,5.90
2023-03-28T07:31:28.682Z,6.57
2023-03-28T07:34:20.262Z,4.77
2023-03-28T07:37:08.840Z,6.30
2023-03-28T07:40:28.239Z,4.43
2023-03-28T07:43:17.007Z,5.87
2023-03-28T07:46:06.729Z,5.33
2023-03-28T07:48:55.827Z,4.73
2023-03-28T07:51:43.730Z,6.17
2023-03-28T07:54:33.084Z,7.10
2023-03-28T07:57:20.232Z,5.53
2023-03-28T08:00:19.333Z,9.60
2023-03-28T08:03:24.041Z,4.77
2023-03-28T08:06:28.661Z,4.93
2023-03-28T08:09:18.899Z,3.97
2023-03-28T08:12:08.696Z,5.43
2023-03-28T08:14:55.855Z,3.33
2023-03-28T08:17:43.700Z,4.83
2023-03-28T08:20:32.824Z,3.80
2023-03-28T08:23:29.701Z,4.87
2023-03-28T08:26:40.500Z,3.33
2023-03-28T08:29:27.950Z,5.80
2023-03-28T08:32:14.897Z,4.17
2023-03-28T08:35:03.161Z,3.20
2023-03-28T08:37:52.186Z,3.67
2023-03-28T08:40:46.853Z,2.73
2023-03-28T08:43:49.662Z,5.00
2023-03-28T08:46:41.449Z,4.47
2023-03-28T08:49:31.094Z,3.60
2023-03-28T08:52:20.457Z,3.93
2023-03-28T08:55:17.138Z,2.80
2023-03-28T08:58:04.676Z,5.73
2023-03-28T09:00:52.110Z,3.83
2023-03-28T09:03:39.498Z,2.30
2023-03-28T09:06:40.160Z,4.10
2023-03-28T09:10:03.794Z,2.63
2023-03-28T09:13:06.885Z,1.77
2023-03-28T09:16:22.901Z,2.40
2023-03-28T09:19:56.699Z,2.30
2023-03-28T09:23:14.865Z,2.10
2023-03-28T09:26:43.580Z,4.47
2023-03-28T09:29:39.566Z,2.70
2023-03-28T09:32:32.999Z,5.17
2023-03-28T09:35:22.496Z,1.33
2023-03-28T09:38:20.953Z,4.13
2023-03-28T09:41:29.425Z,2.60
2023-03-28T09:44:52.906Z,3.00
2023-03-28T09:48:00.204Z,4.77
2023-03-28T09:50:52.559Z,1.53
2023-03-28T09:53:39.540Z,2.27
2023-03-28T09:56:34.745Z,2.50
2023-03-28T09:59:35.111Z,3.33
2023-03-28T10:02:32.207Z,1.63
2023-03-28T10:05:38.725Z,2.37
2023-03-28T10:08:40.167Z,1.83
2023-03-28T10:11:59.769Z,1.00
2023-03-28T10:14:52.866Z,1.77
2023-03-28T10:18:04.833Z,0.97
2023-03-28T10:21:04.760Z,1.47
2023-03-28T10:24:02.338Z,1.90
2023-03-28T10:26:50.458Z,2.27
2023-03-28T10:29:38.316Z,3.10
2023-03-28T10:32:28.876Z,2.20
2023-03-28T10:35:47.732Z,1.53
2023-03-28T10:38:47.314Z,1.67
2023-03-28T10:42:01.047Z,4.30
2023-03-28T10:45:24.029Z,1.27
2023-03-28T10:48:18.301Z,2.57
2023-03-28T10:51:13.445Z,2.80
2023-03-28T10:54:24.553Z,6.10
2023-03-28T10:57:36.376Z,7.03
2023-03-28T11:00:31.339Z,12.40
2023-03-28T11:03:43.165Z,4.57
2023-03-28T11:06:49.600Z,2.10
2023-03-28T11:09:51.919Z,1.93
2023-03-28T11:13:09.353Z,3.80
2023-03-28T11:16:18.849Z,1.50
2023-03-28T11:19:42.722Z,2.33
2023-03-28T11:22:39.755Z,3.27
2023-03-28T11:25:57.988Z,1.83
2023-03-28T11:29:19.207Z,1.27
2023-03-28T11:32:21.674Z,1.23
2023-03-28T11:35:38.453Z,2.03
2023-03-28T11:38:44.298Z,1.70
2023-03-28T11:41:37.002Z,2.33
2023-03-28T11:44:33.459Z,1.10
2023-03-28T11:47:28.411Z,1.90
2023-03-28T11:50:35.474Z,2.93
2023-03-28T11:53:44.167Z,1.13
2023-03-28T11:56:54.571Z,2.03
2023-03-28T11:59:55.970Z,0.87
2023-03-28T12:03:02.009Z,0.97
2023-03-28T12:06:06.127Z,3.47
2023-03-28T12:09:00.917Z,1.83
2023-03-28T12:12:06.392Z,1.47
2023-03-28T12:15:05.407Z,2.60
2023-03-28T12:18:12.819Z,1.53
2023-03-28T12:21:10.409Z,1.13
2023-03-28T12:24:35.741Z,1.70
2023-03-28T12:27:42.078Z,2.07
2023-03-28T12:30:36.290Z,1.47
2023-03-28T12:33:47.916Z,2.03
2023-03-28T12:37:12.449Z,1.23
2023-03-28T12:40:13.470Z,2.43
2023-03-28T12:43:01.343Z,1.27
2023-03-28T12:45:55.137Z,1.00
2023-03-28T12:48:43.714Z,1.40
2023-03-28T12:51:37.303Z,1.23
2023-03-28T12:54:31.677Z,1.23
2023-03-28T12:57:41.122Z,2.00
2023-03-28T13:00:49.177Z,3.40
2023-03-28T13:04:03.788Z,0.93
2023-03-28T13:07:21.612Z,1.63
2023-03-28T13:10:32.695Z,1.80
2023-03-28T13:13:28.845Z,1.80
2023-03-28T13:16:23.878Z,1.33
2023-03-28T13:19:12.553Z,1.50
2023-03-28T13:22:00.185Z,1.77
2023-03-28T13:24:48.352Z,0.90
2023-03-28T13:27:35.543Z,3.00
2023-03-28T13:30:28.740Z,2.50
2023-03-28T13:33:26.871Z,2.37
2023-03-28T13:36:19.512Z,1.60
2023-03-28T13:39:18.518Z,1.23
2023-03-28T13:42:26.564Z,1.00
2023-03-28T13:45:21.558Z,3.20
2023-03-28T13:48:13.504Z,3.63
2023-03-28T13:51:06.562Z,1.20
2023-03-28T13:53:53.603Z,1.73
2023-03-28T13:56:44.555Z,2.50
2023-03-28T13:59:43.715Z,1.30
2023-03-28T14:02:32.912Z,3.90
2023-03-28T14:05:27.824Z,2.77
2023-03-28T14:08:14.695Z,1.13
2023-03-28T14:11:02.786Z,2.27
2023-03-28T14:14:01.856Z,1.77
2023-03-28T14:16:49.091Z,2.87
2023-03-28T14:19:41.197Z,1.47
2023-03-28T14:22:30.518Z,1.43
2023-03-28T14:25:17.942Z,3.17
2023-03-28T14:28:08.822Z,1.50
2023-03-28T14:30:56.393Z,0.93
2023-03-28T14:33:47.345Z,1.90
2023-03-28T14:36:58.065Z,0.90
2023-03-28T14:39:45.732Z,2.30
2023-03-28T14:42:33.026Z,2.53
2023-03-28T14:45:21.415Z,2.40
2023-03-28T14:48:13.616Z,2.10
2023-03-28T14:51:03.128Z,1.73
2023-03-28T14:53:51.514Z,1.93
2023-03-28T14:56:38.610Z,2.00
2023-03-28T14:59:41.167Z,2.07
2023-03-28T15:02:33.533Z,1.23
2023-03-28T15:05:22.345Z,1.33
2023-03-28T15:08:37.658Z,1.90
2023-03-28T15:11:29.914Z,1.93
2023-03-28T15:14:27.946Z,2.63
2023-03-28T15:17:20.401Z,1.20
2023-03-28T15:20:17.150Z,1.37
2023-03-28T15:23:07.427Z,2.60
2023-03-28T15:25:55.930Z,0.93
2023-03-28T15:28:43.042Z,1.73
2023-03-28T15:31:30.913Z,1.50
2023-03-28T15:34:23.910Z,2.30
2023-03-28T15:37:18.896Z,1.63
2023-03-28T15:40:42.905Z,2.93
2023-03-28T15:43:32.489Z,3.27
2023-03-28T15:46:22.037Z,1.03
2023-03-28T15:49:11.254Z,1.50
2023-03-28T15:52:02.031Z,2.03
2023-03-28T15:54:52.222Z,3.67
2023-03-28T15:57:39.321Z,3.40
2023-03-28T16:00:42.567Z,2.63
2023-03-28T16:03:34.815Z,1.83
2023-03-28T16:06:31.674Z,0.97
2023-03-28T16:09:22.031Z,1.33
2023-03-28T16:12:13.440Z,0.90
2023-03-28T16:15:04.164Z,1.63
2023-03-28T16:18:06.509Z,2.47
2023-03-28T16:21:14.141Z,1.40
2023-03-28T16:24:01.083Z,1.60
2023-03-28T16:26:48.259Z,2.30
2023-03-28T16:29:35.254Z,1.33
2023-03-28T16:32:23.872Z,2.63
2023-03-28T16:35:11.380Z,2.00
2023-03-28T16:37:58.311Z,1.23
2023-03-28T16:40:46.634Z,1.23
2023-03-28T16:43:33.606Z,0.87
2023-03-28T16:46:20.994Z,1.30
2023-03-28T16:49:07.969Z,1.37
2023-03-28T16:51:55.726Z,2.07
2023-03-28T16:54:44.153Z,1.70
2023-03-28T16:57:31.232Z,1.10
2023-03-28T17:00:18.549Z,0.90
2023-03-28T17:03:05.617Z,1.00
2023-03-28T17:05:52.650Z,3.43
2023-03-28T17:08:40.475Z,1.07
2023-03-28T17:11:28.048Z,2.53
2023-03-28T17:14:15.628Z,1.20
2023-03-28T17:17:02.785Z,0.77
2023-03-28T17:19:50.383Z,2.10
2023-03-28T17:22:37.537Z,0.80
2023-03-28T17:25:24.860Z,1.77
2023-03-28T17:28:11.794Z,0.93
2023-03-28T17:30:58.837Z,1.50
2023-03-28T17:33:47.447Z,1.17
2023-03-28T17:36:34.793Z,1.30
2023-03-28T17:39:22.963Z,0.87
2023-03-28T17:42:09.921Z,1.07
2023-03-28T17:44:58.069Z,1.37
2023-03-28T17:47:45.106Z,1.13
2023-03-28T17:50:32.089Z,1.27
2023-03-28T17:53:19.433Z,0.97
2023-03-28T17:56:07.267Z,1.00
2023-03-28T17:58:54.217Z,1.00
2023-03-28T18:01:41.436Z,1.07
2023-03-28T18:04:28.355Z,1.43
2023-03-28T18:07:34.897Z,4.27
2023-03-28T18:10:24.897Z,1.73
2023-03-28T18:13:11.838Z,1.13
2023-03-28T18:15:58.921Z,1.00
2023-03-28T18:18:46.562Z,2.13
2023-03-28T18:21:33.775Z,1.47
2023-03-28T18:24:21.972Z,1.20
2023-03-28T18:27:08.901Z,2.00
2023-03-28T18:29:55.829Z,0.80
2023-03-28T18:32:43.124Z,0.97
2023-03-28T18:35:30.448Z,1.20
2023-03-28T18:38:17.713Z,1.00
2023-03-28T18:41:06.340Z,1.43
2023-03-28T18:43:53.335Z,1.10
2023-03-28T18:46:40.708Z,1.53
2023-03-28T18:49:28.539Z,1.00
2023-03-28T18:52:15.494Z,2.37
2023-03-28T18:55:02.458Z,1.30
2023-03-28T18:57:50.327Z,1.20
2023-03-28T19:00:38.546Z,1.00
2023-03-28T19:03:27.956Z,1.10
2023-03-28T19:06:15.724Z,1.60
2023-03-28T19:09:03.722Z,1.40
2023-03-28T19:11:51.212Z,1.40
2023-03-28T19:14:38.829Z,1.43
2023-03-28T19:17:25.741Z,1.87
2023-03-28T19:20:13.563Z,1.97
2023-03-28T19:23:01.061Z,1.93
2023-03-28T19:25:48.643Z,1.70
2023-03-28T19:28:35.898Z,1.40
2023-03-28T19:31:24.696Z,1.20
2023-03-28T19:34:16.965Z,1.33
2023-03-28T19:37:03.995Z,2.57
2023-03-28T19:39:50.980Z,1.60
2023-03-28T19:42:37.915Z,1.67
2023-03-28T19:45:26.473Z,2.10
2023-03-28T19:48:13.542Z,2.03
2023-03-28T19:51:00.937Z,2.03
2023-03-28T19:53:47.876Z,2.13
2023-03-28T19:56:35.564Z,2.10
2023-03-28T19:59:22.498Z,2.00
2023-03-28T20:02:11.474Z,2.20
2023-03-28T20:04:58.639Z,1.93
2023-03-28T20:07:45.703Z,1.57
2023-03-28T20:10:32.675Z,2.07
2023-03-28T20:13:19.981Z,2.83
2023-03-28T20:16:08.621Z,2.13
2023-03-28T20:18:56.208Z,3.10
2023-03-28T20:21:43.244Z,2.67
2023-03-28T20:24:30.276Z,2.13
2023-03-28T20:27:18.138Z,2.40
2023-03-28T20:30:06.682Z,2.40
2023-03-28T20:32:53.721Z,2.10
2023-03-28T20:35:41.828Z,2.10
2023-03-28T20:38:29.937Z,1.83
2023-03-28T20:41:18.749Z,2.10
2023-03-28T20:44:05.906Z,2.07
2023-03-28T20:46:52.849Z,2.67
2023-03-28T20:49:46.216Z,3.30
2023-03-28T20:52:38.256Z,3.37
2023-03-28T20:55:25.744Z,2.50
2023-03-28T20:58:12.694Z,2.37
2023-03-28T21:01:01.495Z,2.40
2023-03-28T21:03:49.780Z,2.43
2023-03-28T21:06:38.088Z,2.20
2023-03-28T21:09:25.461Z,2.20
2023-03-28T21:12:12.376Z,2.63
2023-03-28T21:14:59.307Z,2.77
2023-03-28T21:17:49.333Z,3.03
2023-03-28T21:20:36.437Z,3.10
2023-03-28T21:23:23.632Z,3.43
2023-03-28T21:26:13.851Z,3.87
2023-03-28T21:29:00.793Z,2.50
2023-03-28T21:31:47.814Z,2.83
2023-03-28T21:34:36.055Z,3.37
2023-03-28T21:37:23.249Z,2.50
2023-03-28T21:40:10.594Z,4.80
2023-03-28T21:42:57.553Z,4.13
2023-03-28T21:45:48.226Z,2.80
2023-03-28T21:48:36.375Z,2.63
2023-03-28T21:51:23.474Z,3.33
2023-03-28T21:54:10.440Z,2.70
2023-03-28T21:56:59.030Z,2.27
2023-03-28T21:59:46.476Z,1.93
2023-03-28T22:02:33.734Z,2.97
2023-03-28T22:05:29.129Z,2.10
2023-03-28T22:08:16.826Z,2.87
2023-03-28T22:11:13.401Z,2.60
2023-03-28T22:14:04.885Z,2.50
2023-03-28T22:16:51.834Z,3.90
2023-03-28T22:19:39.042Z,2.60
2023-03-28T22:22:28.037Z,2.63
2023-03-28T22:25:15.036Z,2.60
2023-03-28T22:28:04.262Z,2.60
2023-03-28T22:30:53.752Z,4.07
2023-03-28T22:33:40.707Z,4.70
2023-03-28T22:36:27.736Z,2.53
2023-03-28T22:39:17.779Z,2.27
2023-03-28T22:42:04.775Z,2.97
2023-03-28T22:44:52.086Z,2.33
2023-03-28T22:47:42.047Z,4.00
2023-03-28T22:50:29.355Z,2.23
2023-03-28T22:53:16.355Z,2.50
2023-03-28T22:56:03.663Z,2.47
2023-03-28T22:58:51.457Z,3.07
2023-03-28T23:01:38.525Z,2.37
2023-03-28T23:04:27.142Z,2.43
2023-03-28T23:07:14.395Z,2.50
2023-03-28T23:10:03.573Z,2.20
2023-03-28T23:12:50.584Z,2.03
2023-03-28T23:15:37.734Z,3.90
2023-03-28T23:18:24.672Z,1.93
2023-03-28T23:21:11.644Z,2.50
2023-03-28T23:23:59.081Z,2.60
2023-03-28T23:26:46.064Z,3.00
2023-03-28T23:29:33.431Z,2.63
2023-03-28T23:32:20.377Z,2.23
2023-03-28T23:35:08.089Z,2.20
2023-03-28T23:37:55.023Z,2.10
2023-03-28T23:40:41.961Z,2.10
2023-03-28T23:43:29.733Z,2.27
2023-03-28T23:46:16.834Z,2.13
2023-03-28T23:49:04.038Z,3.07
2023-03-28T23:51:51.039Z,2.80
2023-03-28T23:54:38.401Z,2.83
2023-03-28T23:57:28.386Z,4.13
